Decoded Metar for KLEE (LEESBURG in FL, USA) (IATA:LEE) | Meteo·Mobile Aviation Weather
aviador You're here:

KLEE Decoded Metar

LEESBURG in FL, USA
Report Time2019-01-16 17:53:00
UTC Time2019-01-16 18:19:02
Flight Rules vfr VFR
Wind320° at 06 kt
W.Decomp.*RWY 31: 5.8 kt HW 1.6 kt RCW
RWY 03: 2.5 kt HW 5.4 kt LCW
W.Rank320° ranks 30
Current wind is below 320° avg. (6.0)
Visibility9999 m
Phenomena:N/A
Clouds:N/A
Expected CloudBase > 3,600 ft AGL from Temp-Dew spread
CeilingNone
Temp13°C (ISA -2)
Dew Point04°C (55% RH)
AAT9.6°C
QNH1024 hPa
Density Alt-404 ft
Elevation75 ft
Report Wrong Elevation
Raw Report
KLEE 161753Z 32006KT 10SM CLR 13/04 A3025 RMK AO2 SLP242 T01280044
10133 20050 58016=

Extra information for KLEE:More info

Metar Taf Metar & Taf Last 4 Metars F.Rules Stats Wind Profile Meteogram Temp Stats Airport Information Weather charts Add Link Nearby VenuesMetar ALERT Operation Metar Decoded Social comments

AIRNAV info for KLEE